Time;durP1;ratioP1;P1;durP2;ratioP2;P2;SDS_P1;SDS_P2;PMS_P1;PMS_P2;Temp;Humidity;BMP_temperature;BMP_pressure;BME280_temperature;BME280_humidity;BME280_pressure;Samples;Min_cycle;Max_cycle;Signal;HPM_P1;HPM_P2
2023/04/22 00:01:52;;;;;;;11.65;8.80;;;11.10;99.90;;;;;;5073202;28;20415;-74
2023/04/22 00:04:19;;;;;;;8.95;8.10;;;11.10;99.90;;;;;;5070918;28;20028;-74
2023/04/22 00:06:46;;;;;;;11.38;8.82;;;11.10;99.90;;;;;;5071910;28;20510;-74
2023/04/22 00:09:12;;;;;;;10.48;8.68;;;11.10;99.90;;;;;;5073056;28;20028;-74
2023/04/22 00:11:38;;;;;;;9.95;8.75;;;11.10;99.90;;;;;;5073209;28;20020;-74
2023/04/22 00:14:04;;;;;;;9.88;8.88;;;11.20;99.90;;;;;;5071639;28;20044;-74
2023/04/22 00:16:31;;;;;;;9.02;8.13;;;11.30;99.90;;;;;;5072781;28;20414;-72
2023/04/22 00:18:57;;;;;;;10.27;8.35;;;11.40;99.90;;;;;;5073028;28;20032;-72
2023/04/22 00:21:23;;;;;;;8.85;8.00;;;11.30;99.90;;;;;;5071989;28;20391;-72
2023/04/22 00:23:49;;;;;;;10.27;8.73;;;11.30;99.90;;;;;;5072616;28;20025;-72
2023/04/22 00:26:15;;;;;;;9.10;8.07;;;11.50;99.90;;;;;;5072144;28;20028;-72
2023/04/22 00:28:41;;;;;;;9.35;8.38;;;11.60;99.90;;;;;;5071008;28;20039;-72
2023/04/22 00:31:07;;;;;;;8.20;7.50;;;11.60;99.90;;;;;;5071232;28;20036;-72
2023/04/22 00:33:33;;;;;;;8.75;7.70;;;11.60;99.90;;;;;;5070492;28;20036;-72
2023/04/22 00:35:59;;;;;;;9.23;8.23;;;11.60;99.90;;;;;;5072149;28;20033;-72
2023/04/22 00:38:25;;;;;;;10.23;7.82;;;11.60;99.90;;;;;;5071213;28;20040;-72
2023/04/22 00:40:51;;;;;;;8.13;7.32;;;11.60;99.90;;;;;;5071117;28;20027;-72
2023/04/22 00:43:17;;;;;;;9.52;8.15;;;11.50;99.90;;;;;;5071590;28;20414;-72
2023/04/22 00:45:44;;;;;;;9.02;8.13;;;11.50;99.90;;;;;;5070873;28;20029;-72
2023/04/22 00:48:10;;;;;;;8.98;7.80;;;11.50;99.90;;;;;;5071557;28;20029;-72
2023/04/22 00:50:36;;;;;;;8.80;7.88;;;11.50;99.90;;;;;;5053954;28;20048;-72
2023/04/22 00:53:02;;;;;;;8.95;8.07;;;11.30;99.90;;;;;;5071147;28;20533;-72
2023/04/22 00:55:28;;;;;;;8.85;8.05;;;11.40;99.90;;;;;;5071196;28;20024;-72
2023/04/22 00:57:55;;;;;;;9.50;8.25;;;11.30;99.90;;;;;;5071051;28;20032;-72
2023/04/22 01:00:25;;;;;;;10.93;7.75;;;11.30;99.90;;;;;;5053912;28;20032;-72
2023/04/22 01:02:55;;;;;;;12.55;8.52;;;11.40;99.90;;;;;;5055433;28;20044;-72
2023/04/22 01:05:22;;;;;;;9.23;8.20;;;11.40;99.90;;;;;;5068270;28;20035;-72
2023/04/22 01:07:48;;;;;;;8.88;7.97;;;11.40;99.90;;;;;;5054544;28;20471;-72
2023/04/22 01:10:14;;;;;;;8.65;7.75;;;11.50;99.90;;;;;;5071931;28;20032;-72
2023/04/22 01:12:40;;;;;;;9.40;8.43;;;11.40;99.90;;;;;;5071909;28;20043;-72
2023/04/22 01:15:07;;;;;;;8.85;8.05;;;11.10;99.90;;;;;;5071312;28;20032;-71
2023/04/22 01:17:33;;;;;;;9.55;7.55;;;11.20;99.90;;;;;;5072221;28;20086;-72
2023/04/22 01:20:00;;;;;;;10.45;8.30;;;11.10;99.90;;;;;;5053683;28;20466;-72
2023/04/22 01:22:26;;;;;;;9.18;8.23;;;11.00;99.90;;;;;;5070742;28;20044;-72
2023/04/22 01:24:53;;;;;;;8.90;7.53;;;11.00;99.90;;;;;;5069758;28;20025;-71
2023/04/22 01:27:19;;;;;;;11.18;8.00;;;11.10;99.90;;;;;;5070726;28;20024;-71
2023/04/22 01:29:45;;;;;;;10.55;8.50;;;11.00;99.90;;;;;;5071014;28;20028;-72
2023/04/22 01:32:11;;;;;;;10.00;8.05;;;11.00;99.90;;;;;;5052646;28;20422;-72
2023/04/22 01:34:38;;;;;;;10.68;8.20;;;11.00;99.90;;;;;;5071081;28;20041;-72
2023/04/22 01:37:05;;;;;;;8.90;8.00;;;11.00;99.90;;;;;;5070685;28;20036;-72
2023/04/22 01:39:31;;;;;;;8.68;7.80;;;11.00;99.90;;;;;;5054128;28;20032;-72
2023/04/22 01:41:58;;;;;;;9.60;8.27;;;11.10;99.90;;;;;;5071574;28;20052;-72
2023/04/22 01:44:25;;;;;;;9.57;7.32;;;11.10;99.90;;;;;;5069465;28;20040;-72
2023/04/22 01:46:51;;;;;;;10.23;7.72;;;11.10;99.90;;;;;;5053384;28;20471;-72
2023/04/22 01:49:17;;;;;;;9.05;7.40;;;11.00;99.90;;;;;;5054201;28;20036;-73
2023/04/22 01:51:43;;;;;;;9.50;7.70;;;10.90;99.90;;;;;;5071910;28;20045;-72
2023/04/22 01:54:09;;;;;;;8.63;7.78;;;10.90;99.90;;;;;;5070682;28;20053;-72
2023/04/22 01:56:37;;;;;;;8.77;7.80;;;10.90;99.90;;;;;;5070325;28;20025;-72
2023/04/22 01:59:04;;;;;;;8.57;7.68;;;10.90;99.90;;;;;;5054066;28;20040;-73
2023/04/22 02:01:30;;;;;;;9.43;7.88;;;10.90;99.90;;;;;;5069858;28;20029;-72
2023/04/22 02:03:56;;;;;;;9.43;7.93;;;10.90;99.90;;;;;;5066514;28;20055;-72
2023/04/22 02:06:22;;;;;;;8.77;7.85;;;11.00;99.90;;;;;;5061541;28;20024;-72
2023/04/22 02:08:48;;;;;;;8.30;7.50;;;11.00;99.90;;;;;;5055990;28;20033;-73
2023/04/22 02:11:14;;;;;;;9.77;7.80;;;11.20;99.90;;;;;;5069882;28;20040;-73
2023/04/22 02:13:40;;;;;;;9.88;7.88;;;11.10;99.90;;;;;;5067998;28;20043;-73
2023/04/22 02:16:06;;;;;;;9.40;7.90;;;11.10;99.90;;;;;;5070371;28;20032;-73
2023/04/22 02:18:33;;;;;;;9.20;8.30;;;11.10;99.90;;;;;;5074000;28;20036;-72
2023/04/22 02:20:59;;;;;;;8.93;6.97;;;11.10;99.90;;;;;;5072399;28;20047;-73
2023/04/22 02:23:25;;;;;;;9.32;7.32;;;11.00;99.90;;;;;;5070918;28;20036;-73
2023/04/22 02:25:52;;;;;;;10.25;8.30;;;10.80;99.90;;;;;;5072238;28;20028;-73
2023/04/22 02:28:18;;;;;;;8.85;7.47;;;10.80;99.90;;;;;;5056081;28;20021;-73
2023/04/22 02:30:45;;;;;;;10.10;8.15;;;10.80;99.90;;;;;;5055486;28;20052;-72
2023/04/22 02:33:11;;;;;;;10.75;7.95;;;10.70;99.90;;;;;;5072627;28;20048;-72
2023/04/22 02:35:37;;;;;;;9.60;7.80;;;10.80;99.90;;;;;;5071011;28;20020;-72
2023/04/22 02:38:03;;;;;;;10.05;7.65;;;10.80;99.90;;;;;;5074596;28;20191;-72
2023/04/22 02:40:29;;;;;;;8.90;8.00;;;10.80;99.90;;;;;;5066404;28;20033;-72
2023/04/22 02:42:55;;;;;;;12.50;8.35;;;10.70;99.90;;;;;;5073483;28;20055;-72
2023/04/22 02:45:21;;;;;;;9.80;8.50;;;10.80;99.90;;;;;;5073240;28;20032;-72
2023/04/22 02:47:47;;;;;;;8.75;7.85;;;11.00;99.90;;;;;;5039651;28;20067;-74
2023/04/22 02:50:14;;;;;;;9.18;8.27;;;11.00;99.90;;;;;;5074861;28;20036;-72
2023/04/22 02:52:40;;;;;;;10.52;8.35;;;10.90;99.90;;;;;;5073403;28;20059;-72
2023/04/22 02:55:07;;;;;;;10.85;8.45;;;11.00;99.90;;;;;;5073607;28;20040;-72
2023/04/22 02:57:33;;;;;;;9.85;7.57;;;10.90;99.90;;;;;;5056942;28;20039;-72
2023/04/22 02:59:59;;;;;;;8.85;7.95;;;10.90;99.90;;;;;;5072554;28;20028;-72
2023/04/22 03:02:25;;;;;;;11.88;7.90;;;10.80;99.90;;;;;;5073274;28;20415;-72
2023/04/22 03:04:53;;;;;;;9.35;7.90;;;10.80;99.90;;;;;;5074593;28;20017;-72
2023/04/22 03:07:19;;;;;;;11.02;8.70;;;10.80;99.90;;;;;;5055750;28;20040;-71
2023/04/22 03:09:45;;;;;;;8.85;7.65;;;10.80;99.90;;;;;;5074189;28;20035;-72
2023/04/22 03:12:11;;;;;;;8.60;7.53;;;10.90;99.90;;;;;;5072615;28;20025;-72
2023/04/22 03:14:37;;;;;;;12.05;7.90;;;10.90;99.90;;;;;;5073385;28;20052;-72
2023/04/22 03:17:03;;;;;;;8.20;7.35;;;10.80;99.90;;;;;;5072682;28;20032;-72
2023/04/22 03:19:29;;;;;;;9.75;8.18;;;10.80;99.90;;;;;;5074503;28;20028;-72
2023/04/22 03:21:57;;;;;;;8.15;7.28;;;10.70;99.90;;;;;;5071472;28;20126;-72
2023/04/22 03:24:23;;;;;;;9.27;7.20;;;10.80;99.90;;;;;;5073556;28;20044;-72
2023/04/22 03:26:49;;;;;;;7.60;6.80;;;10.70;99.90;;;;;;5073045;28;20028;-71
2023/04/22 03:29:15;;;;;;;9.88;8.05;;;10.60;99.90;;;;;;5051465;28;20024;-72
2023/04/22 03:31:41;;;;;;;8.70;7.80;;;10.70;99.90;;;;;;5070847;28;20043;-72
2023/04/22 03:34:07;;;;;;;14.23;8.23;;;10.80;99.90;;;;;;5072193;28;20040;-72
2023/04/22 03:36:33;;;;;;;9.70;8.02;;;10.90;99.90;;;;;;5070304;28;20033;-72
2023/04/22 03:38:59;;;;;;;8.77;7.75;;;10.90;99.90;;;;;;5055670;28;20028;-72
2023/04/22 03:41:26;;;;;;;11.10;9.05;;;11.10;99.90;;;;;;5073086;28;20040;-72
2023/04/22 03:43:52;;;;;;;8.95;7.90;;;11.30;99.90;;;;;;5073850;28;20035;-72
2023/04/22 03:46:18;;;;;;;10.82;8.82;;;11.40;99.90;;;;;;5073166;28;20029;-72
2023/04/22 03:48:44;;;;;;;9.65;8.32;;;11.20;99.90;;;;;;5073754;28;20036;-72
2023/04/22 03:51:10;;;;;;;10.43;8.30;;;11.10;99.90;;;;;;5068887;28;22003;-72
2023/04/22 03:53:36;;;;;;;8.57;7.68;;;11.30;99.90;;;;;;5072746;28;20044;-72
2023/04/22 03:56:02;;;;;;;9.57;8.00;;;11.40;99.90;;;;;;5073709;28;20024;-73
2023/04/22 03:58:29;;;;;;;9.07;7.93;;;11.30;99.90;;;;;;5073484;28;20410;-72
2023/04/22 04:00:55;;;;;;;9.77;8.23;;;11.40;99.90;;;;;;5072075;28;20483;-72
2023/04/22 04:03:21;;;;;;;9.05;8.10;;;11.40;99.90;;;;;;5073529;28;20031;-73
2023/04/22 04:05:47;;;;;;;9.93;8.40;;;11.30;99.90;;;;;;5070726;28;20486;-73
2023/04/22 04:08:13;;;;;;;10.25;9.10;;;11.40;99.90;;;;;;5072377;28;20028;-72
2023/04/22 04:10:40;;;;;;;10.00;9.00;;;11.60;99.90;;;;;;5071124;28;20043;-73
2023/04/22 04:13:06;;;;;;;9.98;7.95;;;11.60;99.90;;;;;;5071441;28;20041;-72
2023/04/22 04:15:34;;;;;;;10.30;8.70;;;11.60;99.90;;;;;;5072746;28;20494;-72
2023/04/22 04:18:01;;;;;;;10.90;8.77;;;11.40;99.90;;;;;;5071870;28;20383;-72
2023/04/22 04:20:28;;;;;;;10.05;9.05;;;11.50;99.90;;;;;;5070735;28;20037;-73
2023/04/22 04:22:54;;;;;;;9.82;8.73;;;11.40;99.90;;;;;;5071139;28;20041;-72
2023/04/22 04:25:20;;;;;;;10.98;9.18;;;11.40;99.90;;;;;;5054030;28;20494;-73
2023/04/22 04:27:46;;;;;;;10.90;9.60;;;11.30;99.90;;;;;;5072781;28;20020;-73
2023/04/22 04:30:13;;;;;;;9.38;8.40;;;11.10;99.90;;;;;;5069568;28;20471;-72
2023/04/22 04:32:39;;;;;;;9.88;8.25;;;11.20;99.90;;;;;;5071738;28;20033;-72
2023/04/22 04:35:06;;;;;;;10.65;9.18;;;11.10;99.90;;;;;;5070858;28;20391;-72
2023/04/22 04:37:32;;;;;;;10.20;8.50;;;11.30;99.90;;;;;;5059200;28;20048;-72
2023/04/22 04:39:58;;;;;;;10.70;9.60;;;11.40;99.90;;;;;;5063459;28;20033;-73
2023/04/22 04:42:24;;;;;;;10.80;9.13;;;11.50;99.90;;;;;;5071157;28;20036;-73
2023/04/22 04:44:52;;;;;;;12.57;10.00;;;11.60;99.90;;;;;;5055104;28;20024;-73
2023/04/22 04:47:18;;;;;;;10.85;9.75;;;11.60;99.90;;;;;;5071252;28;20039;-73
2023/04/22 04:49:45;;;;;;;11.18;9.98;;;11.70;99.90;;;;;;5069951;28;20036;-73
2023/04/22 04:52:11;;;;;;;11.43;10.23;;;11.80;99.90;;;;;;5070596;28;20048;-72
2023/04/22 04:54:37;;;;;;;12.85;9.82;;;11.90;99.90;;;;;;5062193;28;20047;-73
2023/04/22 04:57:03;;;;;;;12.45;10.10;;;11.90;99.90;;;;;;5071167;28;20054;-72
2023/04/22 04:59:30;;;;;;;13.27;11.05;;;11.90;99.90;;;;;;5069115;28;20489;-73
2023/04/22 05:01:56;;;;;;;11.57;9.98;;;12.00;99.90;;;;;;5069241;28;20036;-73
2023/04/22 05:04:22;;;;;;;11.10;9.93;;;12.00;99.90;;;;;;5071763;28;20490;-73
2023/04/22 05:06:48;;;;;;;12.80;9.82;;;11.90;99.90;;;;;;5071272;28;20029;-73
2023/04/22 05:09:14;;;;;;;10.75;9.65;;;11.90;99.90;;;;;;5071425;28;20485;-73
2023/04/22 05:11:41;;;;;;;11.05;9.90;;;11.90;99.90;;;;;;5053206;28;20032;-72
2023/04/22 05:14:07;;;;;;;10.07;8.98;;;12.00;99.90;;;;;;5071427;28;20045;-73
2023/04/22 05:16:33;;;;;;;12.43;9.75;;;12.00;99.90;;;;;;5071446;28;20063;-73
2023/04/22 05:18:59;;;;;;;11.18;9.85;;;12.00;99.90;;;;;;5049594;28;20040;-73
2023/04/22 05:21:25;;;;;;;11.30;9.40;;;12.10;99.90;;;;;;5068997;28;20040;-73
2023/04/22 05:23:51;;;;;;;11.40;9.93;;;12.10;99.90;;;;;;5072143;28;20039;-73
2023/04/22 05:26:17;;;;;;;10.45;8.93;;;12.00;99.90;;;;;;5072215;28;20024;-73
2023/04/22 05:28:43;;;;;;;11.48;9.48;;;12.00;99.90;;;;;;5072195;28;20372;-73
2023/04/22 05:31:09;;;;;;;12.50;10.05;;;11.90;99.90;;;;;;5070755;28;20033;-73
2023/04/22 05:33:35;;;;;;;12.02;9.43;;;11.70;99.90;;;;;;5070930;28;20041;-73
2023/04/22 05:36:01;;;;;;;11.13;9.90;;;11.70;99.90;;;;;;5072023;28;20032;-73
2023/04/22 05:38:27;;;;;;;11.30;9.52;;;11.80;99.90;;;;;;5050839;28;20021;-73
2023/04/22 05:40:54;;;;;;;11.90;10.27;;;11.60;99.90;;;;;;5063984;28;20039;-73
2023/04/22 05:43:20;;;;;;;11.02;9.63;;;11.50;99.90;;;;;;5070692;28;20029;-73
2023/04/22 05:45:46;;;;;;;12.10;10.10;;;11.50;99.90;;;;;;5071595;28;20032;-72
2023/04/22 05:48:12;;;;;;;13.25;10.15;;;11.70;99.90;;;;;;5070837;28;20024;-72
2023/04/22 05:50:38;;;;;;;11.82;10.55;;;11.70;99.90;;;;;;5069829;28;20048;-73
2023/04/22 05:53:04;;;;;;;13.98;10.98;;;11.70;99.90;;;;;;5075684;28;20052;-73
2023/04/22 05:55:30;;;;;;;12.90;10.88;;;11.70;99.90;;;;;;5076069;28;20032;-72
2023/04/22 05:57:56;;;;;;;11.30;10.05;;;11.60;99.90;;;;;;5074868;28;20032;-73
2023/04/22 06:00:23;;;;;;;12.40;10.25;;;11.70;99.90;;;;;;5055782;28;20044;-73
2023/04/22 06:02:49;;;;;;;11.23;10.02;;;11.70;99.90;;;;;;5074085;28;20032;-72
2023/04/22 06:05:15;;;;;;;11.85;10.65;;;11.70;99.90;;;;;;5040845;28;20052;-73
2023/04/22 06:07:41;;;;;;;12.38;11.07;;;11.80;99.90;;;;;;5071274;28;20065;-72
2023/04/22 06:10:08;;;;;;;11.80;10.50;;;11.90;99.90;;;;;;5074608;28;20045;-73
2023/04/22 06:12:34;;;;;;;10.55;9.45;;;11.90;99.90;;;;;;5074425;28;20032;-69
2023/04/22 06:15:00;;;;;;;12.07;9.57;;;12.00;99.90;;;;;;5073684;28;20063;-69
2023/04/22 06:17:26;;;;;;;14.52;9.90;;;12.10;99.90;;;;;;5072383;28;20037;-71
2023/04/22 06:19:52;;;;;;;11.93;9.93;;;12.30;99.90;;;;;;5074854;28;20028;-72
2023/04/22 06:22:18;;;;;;;13.35;10.20;;;12.40;99.90;;;;;;5052336;28;20040;-73
2023/04/22 06:24:44;;;;;;;12.52;10.77;;;12.30;99.90;;;;;;5071165;28;20032;-72
2023/04/22 06:27:10;;;;;;;13.35;10.90;;;12.30;99.90;;;;;;5071592;28;20127;-72
2023/04/22 06:29:37;;;;;;;14.35;11.43;;;12.20;99.90;;;;;;5075128;28;20036;-72
2023/04/22 06:32:03;;;;;;;13.98;11.25;;;12.10;99.90;;;;;;5072322;28;20410;-73
2023/04/22 06:34:29;;;;;;;13.15;11.07;;;12.10;99.90;;;;;;5071847;28;20044;-72
2023/04/22 06:36:56;;;;;;;14.02;11.02;;;12.20;99.90;;;;;;5066228;28;20048;-72
2023/04/22 06:39:22;;;;;;;13.18;11.02;;;12.10;99.90;;;;;;5064016;28;20048;-72
2023/04/22 06:41:48;;;;;;;12.98;11.57;;;12.20;99.90;;;;;;5074280;28;20363;-72
2023/04/22 06:44:15;;;;;;;12.80;10.85;;;12.20;99.90;;;;;;5056854;28;20512;-72
2023/04/22 06:46:41;;;;;;;14.15;11.40;;;12.20;99.90;;;;;;5073068;28;20032;-72
2023/04/22 06:49:07;;;;;;;13.48;11.27;;;12.20;99.90;;;;;;5074765;28;20036;-74
2023/04/22 06:51:33;;;;;;;13.45;11.10;;;12.20;99.90;;;;;;5070183;28;20049;-74
2023/04/22 06:53:59;;;;;;;14.38;10.77;;;12.40;99.90;;;;;;5056093;28;20514;-74
2023/04/22 06:56:25;;;;;;;12.25;10.75;;;12.60;99.90;;;;;;5069671;28;20033;-74
2023/04/22 06:58:51;;;;;;;10.95;9.80;;;12.90;99.90;;;;;;5072357;28;20128;-74
2023/04/22 07:01:18;;;;;;;11.02;9.85;;;13.10;99.90;;;;;;5074045;28;20044;-74
2023/04/22 07:03:44;;;;;;;12.52;10.18;;;13.30;99.90;;;;;;5054270;28;20044;-74
2023/04/22 07:06:10;;;;;;;10.60;9.60;;;13.50;99.90;;;;;;5071396;28;20029;-73
2023/04/22 07:08:36;;;;;;;11.57;9.82;;;13.80;99.90;;;;;;5056481;28;20360;-74
2023/04/22 07:11:02;;;;;;;12.77;9.30;;;14.00;99.90;;;;;;5074150;28;20039;-74
2023/04/22 07:13:32;;;;;;;10.80;9.73;;;14.20;99.90;;;;;;5074177;28;20356;-73
2023/04/22 07:16:01;;;;;;;11.05;9.90;;;14.40;99.90;;;;;;5071183;28;20047;-72
2023/04/22 07:18:28;;;;;;;10.77;9.57;;;14.60;99.90;;;;;;5074344;28;20375;-72
2023/04/22 07:20:54;;;;;;;11.63;10.43;;;14.80;99.90;;;;;;5072625;28;20034;-71
2023/04/22 07:23:20;;;;;;;10.50;9.45;;;15.00;99.90;;;;;;5074357;28;20027;-72
2023/04/22 07:25:46;;;;;;;9.98;9.05;;;15.20;99.90;;;;;;5072302;28;20024;-72
2023/04/22 07:28:12;;;;;;;10.65;9.55;;;15.50;99.90;;;;;;5072570;28;20518;-72
2023/04/22 07:30:39;;;;;;;10.13;9.20;;;15.70;99.90;;;;;;5058796;28;20405;-73
2023/04/22 07:33:05;;;;;;;11.20;10.18;;;15.80;99.90;;;;;;5036348;28;20087;-72
2023/04/22 07:35:31;;;;;;;10.60;9.40;;;15.90;99.90;;;;;;5053977;28;20045;-72
2023/04/22 07:37:57;;;;;;;10.55;9.45;;;16.00;99.90;;;;;;5053636;28;20383;-73
2023/04/22 07:40:23;;;;;;;9.82;8.70;;;16.10;99.90;;;;;;5053847;28;20025;-74
2023/04/22 07:42:49;;;;;;;9.93;9.05;;;16.30;99.90;;;;;;5067026;28;20481;-72
2023/04/22 07:45:15;;;;;;;10.00;9.10;;;16.40;99.90;;;;;;5070782;28;20040;-74
2023/04/22 07:47:41;;;;;;;9.38;8.48;;;16.60;99.90;;;;;;5073904;28;20024;-75
2023/04/22 07:50:08;;;;;;;9.50;8.60;;;16.70;99.90;;;;;;5072796;28;20390;-76
2023/04/22 07:52:35;;;;;;;15.30;9.23;;;16.80;99.90;;;;;;5073012;28;20418;-76
2023/04/22 07:55:01;;;;;;;10.38;9.00;;;16.90;99.90;;;;;;5072067;28;20402;-75
2023/04/22 07:57:27;;;;;;;8.90;8.13;;;16.90;99.90;;;;;;5073273;28;20040;-75
2023/04/22 07:59:53;;;;;;;10.50;9.45;;;16.90;99.90;;;;;;5071551;28;20025;-74
2023/04/22 08:02:19;;;;;;;9.93;9.02;;;17.10;99.90;;;;;;5070944;28;20024;-73
2023/04/22 08:04:45;;;;;;;10.15;9.20;;;17.30;99.90;;;;;;5072792;28;20032;-75
2023/04/22 08:07:13;;;;;;;10.82;9.82;;;17.50;99.90;;;;;;5073173;28;20036;-74
2023/04/22 08:09:39;;;;;;;10.40;9.50;;;17.60;99.90;;;;;;5072465;28;20486;-73
2023/04/22 08:12:05;;;;;;;10.32;9.38;;;17.80;99.90;;;;;;5071264;28;20036;-73
2023/04/22 08:14:31;;;;;;;10.98;9.98;;;17.80;99.90;;;;;;5072610;28;20044;-73
2023/04/22 08:16:57;;;;;;;10.52;9.52;;;17.90;99.90;;;;;;5063892;28;20085;-73
2023/04/22 08:19:23;;;;;;;10.15;9.25;;;18.00;99.90;;;;;;5076162;28;20051;-74
2023/04/22 08:21:50;;;;;;;11.38;10.38;;;18.20;99.90;;;;;;5052076;28;20037;-73
2023/04/22 08:24:16;;;;;;;11.13;10.07;;;18.30;99.90;;;;;;5062471;28;20035;-73
2023/04/22 08:26:42;;;;;;;11.52;10.27;;;18.40;99.90;;;;;;5071661;28;20462;-73
2023/04/22 08:29:09;;;;;;;11.63;10.63;;;18.60;99.90;;;;;;5054599;28;20052;-73
2023/04/22 08:31:35;;;;;;;11.75;10.75;;;18.60;99.90;;;;;;5052703;28;20032;-73
2023/04/22 08:34:01;;;;;;;11.85;10.85;;;18.70;99.90;;;;;;5071536;28;20071;-73
2023/04/22 08:36:27;;;;;;;11.65;10.55;;;18.70;99.90;;;;;;5055203;28;20029;-73
2023/04/22 08:38:53;;;;;;;11.77;10.68;;;18.80;99.90;;;;;;5072615;28;20059;-73
2023/04/22 08:41:21;;;;;;;12.48;10.63;;;18.90;99.90;;;;;;5054068;28;20041;-73
2023/04/22 08:43:48;;;;;;;11.25;10.25;;;19.00;99.90;;;;;;5068220;28;20040;-74
2023/04/22 08:46:18;;;;;;;11.38;10.27;;;19.10;99.90;;;;;;5069368;28;20028;-74
2023/04/22 08:48:48;;;;;;;11.95;10.95;;;19.20;99.90;;;;;;5069844;28;20032;-75
2023/04/22 08:51:17;;;;;;;12.57;11.48;;;19.40;99.90;;;;;;5071347;28;20387;-74
2023/04/22 08:53:43;;;;;;;11.80;10.70;;;19.40;99.90;;;;;;5070281;28;20041;-74
2023/04/22 08:56:13;;;;;;;12.07;11.07;;;19.30;99.90;;;;;;5070975;28;20498;-74
2023/04/22 08:58:42;;;;;;;11.77;10.77;;;19.40;99.90;;;;;;5071280;28;20035;-74
2023/04/22 09:01:08;;;;;;;11.25;10.20;;;19.50;99.90;;;;;;5069822;28;20391;-72
2023/04/22 09:03:36;;;;;;;11.93;10.93;;;19.40;99.90;;;;;;5036189;28;20033;-74
2023/04/22 09:06:03;;;;;;;11.25;10.20;;;19.50;99.90;;;;;;5070488;28;20395;-74
2023/04/22 09:08:30;;;;;;;11.95;10.73;;;19.60;99.90;;;;;;5070304;28;20028;-74
2023/04/22 09:10:57;;;;;;;11.65;10.65;;;19.70;99.90;;;;;;5071546;28;20032;-74
2023/04/22 09:13:24;;;;;;;12.30;11.20;;;19.80;99.90;;;;;;5053662;28;20031;-73
2023/04/22 09:15:50;;;;;;;11.43;10.48;;;19.90;99.90;;;;;;5053106;28;20036;-73
2023/04/22 09:18:18;;;;;;;12.88;11.10;;;19.90;99.90;;;;;;5054533;28;20033;-74
2023/04/22 09:20:45;;;;;;;11.98;10.88;;;19.70;99.90;;;;;;5069255;28;20502;-74
2023/04/22 09:23:11;;;;;;;11.65;10.60;;;19.70;99.90;;;;;;5053808;28;20103;-74
2023/04/22 09:25:37;;;;;;;12.02;10.93;;;19.90;99.90;;;;;;5053109;28;20029;-75
2023/04/22 09:28:03;;;;;;;11.93;10.73;;;19.90;99.90;;;;;;5054097;28;20467;-74
2023/04/22 09:30:31;;;;;;;12.23;10.90;;;19.80;99.90;;;;;;5070710;28;20048;-74
2023/04/22 09:32:58;;;;;;;12.70;11.40;;;19.90;99.90;;;;;;5072133;28;20043;-73
2023/04/22 09:35:35;;;;;;;11.32;10.27;;;20.10;99.90;;;;;;5071688;28;20040;-74
2023/04/22 09:38:05;;;;;;;11.25;10.25;;;20.10;99.90;;;;;;5069952;28;20032;-74
2023/04/22 09:40:31;;;;;;;11.27;10.23;;;20.00;99.90;;;;;;5069584;28;20035;-74
2023/04/22 09:43:00;;;;;;;13.77;11.70;;;20.10;99.90;;;;;;5068576;28;20047;-74
2023/04/22 09:45:30;;;;;;;12.70;11.60;;;20.20;99.90;;;;;;5069290;28;20039;-75
2023/04/22 09:47:58;;;;;;;13.30;11.93;;;20.20;99.90;;;;;;5068426;28;20028;-74
2023/04/22 09:50:25;;;;;;;12.60;11.50;;;20.30;99.90;;;;;;5070520;28;20028;-75
2023/04/22 09:53:03;;;;;;;12.13;11.05;;;20.40;99.90;;;;;;5071225;28;20399;-73
2023/04/22 09:55:31;;;;;;;11.93;10.88;;;20.40;99.90;;;;;;5069419;28;20383;-74
2023/04/22 09:57:57;;;;;;;11.77;10.77;;;20.40;99.90;;;;;;5066001;28;20047;-74
2023/04/22 10:00:27;;;;;;;12.18;10.98;;;20.40;99.90;;;;;;5063884;28;20475;-74
2023/04/22 10:02:53;;;;;;;11.75;10.70;;;20.50;99.90;;;;;;5067268;28;20033;-73
2023/04/22 10:05:19;;;;;;;11.85;10.85;;;20.60;99.90;;;;;;5069586;28;20032;-74
2023/04/22 10:07:45;;;;;;;11.13;10.02;;;20.70;99.90;;;;;;5070305;28;20040;-74
2023/04/22 10:10:12;;;;;;;11.05;10.15;;;20.80;99.90;;;;;;5070770;28;20044;-73
2023/04/22 10:12:38;;;;;;;10.55;9.65;;;21.10;99.90;;;;;;5069767;28;20028;-74
2023/04/22 10:15:05;;;;;;;10.65;9.65;;;21.10;99.90;;;;;;5070409;28;20032;-73
2023/04/22 10:17:35;;;;;;;10.70;9.90;;;21.20;99.90;;;;;;5070547;28;20016;-73
2023/04/22 10:20:04;;;;;;;10.05;9.35;;;21.20;99.90;;;;;;5070414;28;20056;-75
2023/04/22 10:22:31;;;;;;;10.20;9.32;;;21.10;99.90;;;;;;5068548;28;20036;-75
2023/04/22 10:24:57;;;;;;;9.32;8.55;;;21.00;99.90;;;;;;5068709;28;20032;-73
2023/04/22 10:27:23;;;;;;;9.38;8.57;;;21.00;99.90;;;;;;5070170;28;20028;-73
2023/04/22 10:29:50;;;;;;;8.70;7.75;;;21.20;99.90;;;;;;5068439;28;20043;-73
2023/04/22 10:32:19;;;;;;;9.15;8.30;;;21.30;99.70;;;;;;5068452;28;20351;-73
2023/04/22 10:34:46;;;;;;;8.73;8.07;;;21.30;99.30;;;;;;5066967;28;20048;-72
2023/04/22 10:37:13;;;;;;;9.27;8.65;;;21.30;99.00;;;;;;5069465;28;20024;-72
2023/04/22 10:39:40;;;;;;;8.93;8.43;;;21.40;99.30;;;;;;5055726;28;20034;-75
2023/04/22 10:42:10;;;;;;;10.02;9.23;;;21.40;98.00;;;;;;5058077;28;20039;-73
2023/04/22 10:44:47;;;;;;;8.35;7.75;;;21.30;97.60;;;;;;5052362;28;20028;-73
2023/04/22 10:47:35;;;;;;;8.85;8.05;;;21.20;97.90;;;;;;5065921;28;20040;-73
2023/04/22 10:50:23;;;;;;;8.48;7.82;;;21.00;98.10;;;;;;5064742;28;20033;-74
2023/04/22 10:53:02;;;;;;;7.88;7.32;;;21.00;99.30;;;;;;5072775;28;20063;-73
2023/04/22 10:55:48;;;;;;;8.00;7.38;;;21.20;98.40;;;;;;5055240;28;20045;-73
2023/04/22 10:58:18;;;;;;;7.90;7.30;;;21.30;98.10;;;;;;5072166;28;20032;-73
2023/04/22 11:00:46;;;;;;;7.75;7.10;;;21.20;97.50;;;;;;5070479;28;20487;-73
2023/04/22 11:03:15;;;;;;;8.27;7.60;;;21.20;98.30;;;;;;5072455;28;20036;-72
2023/04/22 11:05:42;;;;;;;7.97;7.28;;;21.40;98.40;;;;;;5071244;28;20498;-73
2023/04/22 11:08:12;;;;;;;7.72;7.28;;;21.40;98.30;;;;;;5054834;28;20387;-73
2023/04/22 11:10:43;;;;;;;9.82;7.68;;;21.60;98.80;;;;;;5072695;28;20024;-73
2023/04/22 11:13:10;;;;;;;;;;;21.70;98.30;;;;;;5038919;28;20534;-74
2023/04/22 11:15:37;;;;;;;8.23;7.63;;;21.80;98.20;;;;;;5071873;28;19920;-73
2023/04/22 11:18:06;;;;;;;8.63;7.93;;;21.90;98.40;;;;;;5053817;28;20024;-73
2023/04/22 11:20:32;;;;;;;8.75;8.05;;;21.90;98.50;;;;;;5054602;28;20036;-73
2023/04/22 11:22:59;;;;;;;8.93;8.32;;;22.10;98.30;;;;;;5071559;28;20474;-73
2023/04/22 11:25:25;;;;;;;9.70;8.63;;;22.30;98.80;;;;;;5071678;28;20056;-73
2023/04/22 11:27:53;;;;;;;8.75;8.25;;;22.40;98.10;;;;;;5054566;28;20032;-73
2023/04/22 11:30:22;;;;;;;9.32;8.73;;;22.40;98.20;;;;;;5070422;28;20051;-73
2023/04/22 11:32:52;;;;;;;9.95;9.18;;;22.50;98.40;;;;;;5069775;28;20028;-73
2023/04/22 11:35:29;;;;;;;8.98;8.27;;;22.60;97.80;;;;;;5054644;28;20039;-73
2023/04/22 11:37:57;;;;;;;9.25;8.65;;;22.60;97.60;;;;;;5070126;28;20364;-74
2023/04/22 11:40:25;;;;;;;8.65;7.95;;;22.50;96.70;;;;;;5071461;28;20043;-73
2023/04/22 11:42:51;;;;;;;9.07;8.40;;;22.40;97.60;;;;;;5070784;28;20076;-73
2023/04/22 11:45:17;;;;;;;8.20;7.63;;;22.40;97.40;;;;;;5072089;28;20036;-73
2023/04/22 11:47:45;;;;;;;8.73;7.85;;;22.40;98.00;;;;;;5070602;28;20028;-74
2023/04/22 11:50:12;;;;;;;8.90;8.38;;;22.40;98.20;;;;;;5068452;28;20033;-77
2023/04/22 11:52:51;;;;;;;9.38;7.47;;;22.30;97.40;;;;;;5070173;28;20039;-74
2023/04/22 11:55:28;;;;;;;7.40;6.80;;;22.10;97.00;;;;;;5073083;28;20041;-74
2023/04/22 11:57:56;;;;;;;7.38;6.88;;;21.90;97.20;;;;;;5071039;28;20040;-73
2023/04/22 12:00:24;;;;;;;7.90;7.22;;;21.90;97.10;;;;;;5069300;28;22219;-73
2023/04/22 12:03:00;;;;;;;8.00;7.40;;;21.90;95.80;;;;;;5053978;28;20494;-73
2023/04/22 12:05:33;;;;;;;7.93;7.20;;;21.80;95.20;;;;;;5069453;28;20025;-73
2023/04/22 12:08:01;;;;;;;7.82;7.30;;;21.80;95.70;;;;;;5072274;28;20483;-73
2023/04/22 12:10:27;;;;;;;7.32;6.78;;;21.70;96.30;;;;;;5070987;28;20033;-73
2023/04/22 12:12:53;;;;;;;7.40;6.85;;;21.50;95.70;;;;;;5068989;28;20028;-73
2023/04/22 12:15:19;;;;;;;7.47;6.97;;;21.50;96.20;;;;;;5054006;28;20041;-73
2023/04/22 12:17:45;;;;;;;7.57;7.00;;;21.70;97.30;;;;;;5070010;28;20388;-73
2023/04/22 12:20:12;;;;;;;7.90;7.32;;;21.90;96.30;;;;;;5069604;28;20083;-73
2023/04/22 12:22:38;;;;;;;8.00;7.30;;;22.10;96.10;;;;;;5068390;28;20021;-74
2023/04/22 12:25:05;;;;;;;8.95;8.20;;;22.30;96.40;;;;;;5070267;28;20039;-73
2023/04/22 12:27:31;;;;;;;7.70;7.20;;;22.20;95.50;;;;;;5072099;28;20471;-74
2023/04/22 12:29:57;;;;;;;8.23;7.57;;;22.10;95.90;;;;;;5070824;28;20040;-74
2023/04/22 12:32:25;;;;;;;9.02;8.43;;;22.20;95.80;;;;;;5069777;28;20036;-74
2023/04/22 12:34:51;;;;;;;9.35;8.63;;;22.30;95.20;;;;;;5053025;28;20495;-74
2023/04/22 12:37:17;;;;;;;8.02;7.32;;;22.30;93.90;;;;;;5066754;28;20036;-73